Time;durP1;ratioP1;P1;durP2;ratioP2;P2;SDS_P1;SDS_P2;PMS_P1;PMS_P2;Temp;Humidity;BMP_temperature;BMP_pressure;BME280_temperature;BME280_humidity;BME280_pressure;Samples;Min_cycle;Max_cycle;Signal;HPM_P1;HPM_P2
2022/12/28 00:01:45;;;;;;;6.33;3.30;;;4.70;1.00;;;;;;5026702;28;20930;-63
2022/12/28 00:04:15;;;;;;;7.87;3.30;;;4.70;1.00;;;;;;5026224;28;20463;-64
2022/12/28 00:06:42;;;;;;;5.67;3.30;;;4.70;1.00;;;;;;5026725;28;20480;-64
2022/12/28 00:09:12;;;;;;;8.20;3.73;;;4.70;1.00;;;;;;5025653;28;20468;-64
2022/12/28 00:11:39;;;;;;;8.50;3.13;;;4.70;1.00;;;;;;5025495;28;20537;-63
2022/12/28 00:14:06;;;;;;;6.30;2.80;;;4.70;1.00;;;;;;5021301;28;20475;-64
2022/12/28 00:16:37;;;;;;;9.53;3.23;;;4.70;1.00;;;;;;5024841;28;20463;-63
2022/12/28 00:19:09;;;;;;;4.93;3.27;;;4.70;1.00;;;;;;5027243;28;20458;-62
2022/12/28 00:21:39;;;;;;;4.70;3.00;;;4.70;1.00;;;;;;5025218;28;20506;-64
2022/12/28 00:24:07;;;;;;;6.00;2.73;;;4.70;1.00;;;;;;5025180;28;20464;-64
2022/12/28 00:26:35;;;;;;;8.47;3.60;;;4.70;1.00;;;;;;5027471;28;20859;-63
2022/12/28 00:29:03;;;;;;;7.73;3.40;;;4.70;1.00;;;;;;5024159;28;20460;-64
2022/12/28 00:31:33;;;;;;;5.80;3.53;;;4.70;1.00;;;;;;5025777;28;20717;-63
2022/12/28 00:34:00;;;;;;;8.13;3.40;;;4.80;1.00;;;;;;5026013;28;20455;-64
2022/12/28 00:36:29;;;;;;;6.50;3.33;;;4.70;1.00;;;;;;5024756;28;20459;-63
2022/12/28 00:38:56;;;;;;;7.37;3.33;;;4.80;1.00;;;;;;5024873;28;20434;-62
2022/12/28 00:41:23;;;;;;;6.87;3.03;;;4.80;1.00;;;;;;5026483;28;20479;-62
2022/12/28 00:43:50;;;;;;;5.60;3.17;;;4.80;1.00;;;;;;5025578;28;20464;-62
2022/12/28 00:46:17;;;;;;;6.43;3.37;;;4.80;1.00;;;;;;5024273;28;20479;-62
2022/12/28 00:48:45;;;;;;;5.60;3.60;;;4.90;1.00;;;;;;5024793;28;20463;-63
2022/12/28 00:51:17;;;;;;;6.93;3.30;;;4.80;1.00;;;;;;5019483;28;20559;-63
2022/12/28 00:53:46;;;;;;;5.33;3.23;;;4.80;1.00;;;;;;5032142;28;20459;-61
2022/12/28 00:56:15;;;;;;;5.43;3.77;;;4.70;1.00;;;;;;5037268;28;20780;-58
2022/12/28 00:58:44;;;;;;;11.20;3.33;;;4.70;1.00;;;;;;5036924;28;20919;-53
2022/12/28 01:01:13;;;;;;;4.97;3.07;;;4.70;1.00;;;;;;5036904;28;20928;-58
2022/12/28 01:03:40;;;;;;;5.00;3.33;;;4.70;1.00;;;;;;5036528;28;20469;-57
2022/12/28 01:06:09;;;;;;;6.60;3.37;;;4.60;49.30;;;;;;5036833;28;20497;-55
2022/12/28 01:08:36;;;;;;;4.77;3.17;;;4.70;99.90;;;;;;5036766;28;20521;-60
2022/12/28 01:11:09;;;;;;;7.27;3.50;;;4.60;99.90;;;;;;5036911;28;20553;-57
2022/12/28 01:13:37;;;;;;;8.23;3.87;;;4.60;99.90;;;;;;5036911;28;20471;-60
2022/12/28 01:16:11;;;;;;;5.53;3.30;;;4.60;99.90;;;;;;5037042;28;20473;-59
2022/12/28 01:18:38;;;;;;;7.40;2.90;;;4.70;1.00;;;;;;5036257;28;20441;-58
2022/12/28 01:21:09;;;;;;;7.00;3.60;;;4.70;1.00;;;;;;5036338;28;20473;-57
2022/12/28 01:23:37;;;;;;;6.83;3.80;;;4.70;1.00;;;;;;5036890;28;20504;-60
2022/12/28 01:26:04;;;;;;;6.57;3.37;;;4.70;99.90;;;;;;5036427;28;20463;-56
2022/12/28 01:28:33;;;;;;;5.97;3.50;;;4.70;99.90;;;;;;5036468;28;20463;-57
2022/12/28 01:31:04;;;;;;;6.53;3.47;;;4.70;1.00;;;;;;5036068;28;20474;-56
2022/12/28 01:33:31;;;;;;;8.00;3.60;;;4.70;36.80;;;;;;5036811;28;20438;-55
2022/12/28 01:35:59;;;;;;;6.30;3.70;;;4.70;1.00;;;;;;5040048;28;20467;-59
2022/12/28 01:38:26;;;;;;;10.37;3.57;;;4.70;1.00;;;;;;5037921;28;20478;-60
2022/12/28 01:40:53;;;;;;;5.77;3.77;;;4.70;99.90;;;;;;5020178;28;20491;-60
2022/12/28 01:43:20;;;;;;;8.80;3.50;;;4.70;1.00;;;;;;5024181;28;20473;-61
2022/12/28 01:45:52;;;;;;;9.27;3.07;;;4.70;99.90;;;;;;5040304;28;20469;-61
2022/12/28 01:48:23;;;;;;;4.30;3.20;;;4.80;1.00;;;;;;5039414;28;20558;-61
2022/12/28 01:50:52;;;;;;;6.73;3.90;;;4.80;1.00;;;;;;5027027;28;20913;-60
2022/12/28 01:53:21;;;;;;;6.93;3.43;;;4.70;99.90;;;;;;5026984;28;20468;-61
2022/12/28 01:55:49;;;;;;;8.40;3.93;;;4.80;99.90;;;;;;5020141;28;20434;-62
2022/12/28 01:58:21;;;;;;;6.30;3.80;;;4.80;99.90;;;;;;5019979;28;20901;-57
2022/12/28 02:00:50;;;;;;;5.23;3.57;;;4.70;99.90;;;;;;5039533;28;20491;-60
2022/12/28 02:03:19;;;;;;;5.93;3.50;;;4.80;99.90;;;;;;5031657;28;20450;-60
2022/12/28 02:05:50;;;;;;;5.53;3.97;;;4.80;99.90;;;;;;5019112;28;20488;-61
2022/12/28 02:08:22;;;;;;;5.50;3.60;;;4.80;99.90;;;;;;5019520;28;20756;-59
2022/12/28 02:10:51;;;;;;;6.73;3.67;;;4.90;99.90;;;;;;5019339;28;20783;-59
2022/12/28 02:13:21;;;;;;;5.07;3.27;;;4.90;99.90;;;;;;5019836;28;20503;-60
2022/12/28 02:15:50;;;;;;;6.23;3.70;;;4.90;99.90;;;;;;5019719;28;20539;-60
2022/12/28 02:18:19;;;;;;;7.17;3.57;;;5.00;99.90;;;;;;5019040;28;20449;-60
2022/12/28 02:21:12;;;;;;;11.80;4.40;;;5.00;99.90;;;;;;5019072;28;20464;-60
2022/12/28 02:24:07;;;;;;;5.57;3.20;;;5.00;99.90;;;;;;5030615;28;20817;-60
2022/12/28 02:26:49;;;;;;;5.63;3.57;;;5.00;99.90;;;;;;5039294;28;20766;-60
2022/12/28 02:29:46;;;;;;;7.27;3.80;;;5.10;99.90;;;;;;5039214;28;20578;-60
2022/12/28 02:32:27;;;;;;;5.87;3.77;;;5.10;99.90;;;;;;5039348;28;20459;-56
2022/12/28 02:35:03;;;;;;;4.67;3.10;;;5.10;99.90;;;;;;5039000;28;20444;-61
2022/12/28 02:37:36;;;;;;;6.57;3.57;;;5.10;99.90;;;;;;5039105;28;20445;-60
2022/12/28 02:40:08;;;;;;;9.10;4.80;;;5.20;99.90;;;;;;5039286;28;20470;-60
2022/12/28 02:42:36;;;;;;;6.40;3.47;;;5.20;99.90;;;;;;5039232;28;20498;-59
2022/12/28 02:50:46;;;;;;;6.33;3.67;;;5.30;99.90;;;;;;5038006;28;20466;-60
2022/12/28 02:53:43;;;;;;;8.73;3.47;;;5.30;99.90;;;;;;5038628;28;20737;-58
2022/12/28 02:56:24;;;;;;;4.90;3.63;;;5.40;99.90;;;;;;5032460;28;20469;-58
2022/12/28 02:59:15;;;;;;;7.10;3.83;;;5.40;99.90;;;;;;5038760;28;20506;-61
2022/12/28 03:02:03;;;;;;;5.73;3.23;;;5.40;99.90;;;;;;5038464;28;20495;-61
2022/12/28 03:04:41;;;;;;;5.70;3.00;;;5.40;99.90;;;;;;5038412;28;20467;-57
2022/12/28 03:10:07;;;;;;;8.00;3.90;;;5.40;99.90;;;;;;5038227;28;20437;-61
2022/12/28 03:12:41;;;;;;;6.90;3.93;;;5.40;99.90;;;;;;5037333;28;20562;-61
2022/12/28 03:15:13;;;;;;;7.20;4.43;;;5.40;99.90;;;;;;5038215;28;20624;-62
2022/12/28 03:31:41;;;;;;;5.93;3.93;;;5.50;99.90;;;;;;5037842;28;20914;-62
2022/12/28 03:34:10;;;;;;;7.43;3.80;;;5.50;99.90;;;;;;5037439;28;20463;-61
2022/12/28 03:36:43;;;;;;;6.13;3.43;;;5.50;99.90;;;;;;5037551;28;20463;-61
2022/12/28 03:39:18;;;;;;;5.43;3.77;;;5.50;99.90;;;;;;5037814;28;20475;-58
2022/12/28 03:44:35;;;;;;;4.83;3.80;;;5.50;99.90;;;;;;4976676;28;20446;-62
2022/12/28 03:47:09;;;;;;;5.40;3.83;;;5.50;99.90;;;;;;5037648;28;20461;-59
2022/12/28 03:49:38;;;;;;;7.30;4.17;;;5.50;99.90;;;;;;5037848;28;20463;-62
2022/12/28 03:52:08;;;;;;;9.23;3.83;;;5.60;99.90;;;;;;5038035;28;20461;-63
2022/12/28 03:54:35;;;;;;;12.40;4.30;;;5.60;99.90;;;;;;5037396;28;20466;-62
2022/12/28 03:57:02;;;;;;;5.27;4.00;;;5.60;99.90;;;;;;5037567;28;20463;-62
2022/12/28 03:59:29;;;;;;;9.50;4.43;;;5.60;99.90;;;;;;5037362;28;20463;-61
2022/12/28 04:01:56;;;;;;;6.03;3.93;;;5.60;99.90;;;;;;5037662;28;20568;-60
2022/12/28 04:04:24;;;;;;;7.33;4.13;;;5.70;99.90;;;;;;5037170;28;20882;-59
2022/12/28 04:06:52;;;;;;;7.93;4.10;;;5.70;99.90;;;;;;5037784;28;20546;-61
2022/12/28 04:09:21;;;;;;;5.47;3.13;;;5.70;99.90;;;;;;5037366;28;20483;-62
2022/12/28 04:11:48;;;;;;;6.43;4.00;;;5.70;99.90;;;;;;5037460;28;20818;-62
2022/12/28 04:14:15;;;;;;;6.60;4.10;;;5.70;99.90;;;;;;5036876;28;20459;-60
2022/12/28 04:16:42;;;;;;;6.23;3.87;;;5.70;99.90;;;;;;5037182;28;20951;-60
2022/12/28 04:19:09;;;;;;;6.50;4.07;;;5.80;99.90;;;;;;5036785;28;20473;-60
2022/12/28 04:21:37;;;;;;;6.40;3.57;;;5.80;99.90;;;;;;5039893;28;20489;-62
2022/12/28 04:24:06;;;;;;;4.80;3.50;;;5.80;99.90;;;;;;5057196;28;20755;-60
2022/12/28 04:26:33;;;;;;;6.40;3.80;;;5.80;99.90;;;;;;5057188;28;20462;-60
2022/12/28 04:29:01;;;;;;;5.67;3.70;;;5.90;99.90;;;;;;5056464;28;20443;-61
2022/12/28 04:31:29;;;;;;;5.07;3.50;;;5.90;99.90;;;;;;5057368;28;20493;-60
2022/12/28 04:33:57;;;;;;;6.63;4.00;;;5.90;99.90;;;;;;5057200;28;20468;-59
2022/12/28 04:36:25;;;;;;;5.50;3.33;;;5.90;99.90;;;;;;5057249;28;20816;-61
2022/12/28 04:38:52;;;;;;;5.50;3.90;;;6.00;99.90;;;;;;5056967;28;20509;-61
2022/12/28 04:41:21;;;;;;;5.93;3.70;;;6.00;99.90;;;;;;5057055;28;20462;-60
2022/12/28 04:43:48;;;;;;;6.20;4.17;;;6.00;99.90;;;;;;5057400;28;20504;-62
2022/12/28 04:46:18;;;;;;;4.00;2.97;;;6.00;99.90;;;;;;5056889;28;20755;-61
2022/12/28 04:48:45;;;;;;;5.10;3.03;;;6.00;99.90;;;;;;5056814;28;20462;-61
2022/12/28 04:51:20;;;;;;;5.80;4.20;;;6.10;99.90;;;;;;5056788;28;20846;-61
2022/12/28 04:53:47;;;;;;;4.10;3.23;;;6.10;99.90;;;;;;5057290;28;20461;-61
2022/12/28 04:56:16;;;;;;;5.90;3.33;;;6.10;99.90;;;;;;5056530;28;20462;-61
2022/12/28 04:58:45;;;;;;;6.27;3.40;;;6.10;99.90;;;;;;5056758;28;20752;-58
2022/12/28 05:01:14;;;;;;;6.93;4.30;;;6.20;99.90;;;;;;5040694;28;20464;-62
2022/12/28 05:03:42;;;;;;;7.53;3.57;;;6.10;99.90;;;;;;5017031;28;20590;-62
2022/12/28 05:06:13;;;;;;;6.10;3.90;;;6.10;99.90;;;;;;5016960;28;20541;-59
2022/12/28 05:08:41;;;;;;;5.93;3.40;;;6.20;99.90;;;;;;5016684;28;20566;-62
2022/12/28 05:11:13;;;;;;;5.70;3.50;;;6.10;99.90;;;;;;5020670;28;20501;-61
2022/12/28 05:13:40;;;;;;;4.27;3.30;;;6.20;99.90;;;;;;5020926;28;20466;-62
2022/12/28 05:16:10;;;;;;;4.40;3.67;;;6.20;99.90;;;;;;5020796;28;20471;-59
2022/12/28 05:18:38;;;;;;;5.60;3.80;;;6.20;99.90;;;;;;5020508;28;20809;-62
2022/12/28 05:21:07;;;;;;;6.00;4.20;;;6.20;99.90;;;;;;5020725;28;20449;-62
2022/12/28 05:23:36;;;;;;;4.00;3.43;;;6.20;99.90;;;;;;5021011;28;20924;-62
2022/12/28 05:26:03;;;;;;;7.60;4.00;;;6.30;99.90;;;;;;5020749;28;20447;-63
2022/12/28 05:28:31;;;;;;;4.93;3.60;;;6.30;99.90;;;;;;5020287;28;20464;-58
2022/12/28 05:31:00;;;;;;;6.77;4.00;;;6.30;99.90;;;;;;5023758;28;20456;-57
2022/12/28 05:33:29;;;;;;;5.77;4.10;;;6.30;99.90;;;;;;5027991;28;20453;-58
2022/12/28 05:35:57;;;;;;;4.77;4.07;;;6.30;99.90;;;;;;5028618;28;20434;-58
2022/12/28 05:38:24;;;;;;;6.63;3.57;;;6.30;99.90;;;;;;5038794;28;20469;-60
2022/12/28 05:40:52;;;;;;;7.50;3.60;;;6.30;99.90;;;;;;5035767;28;20451;-60
2022/12/28 05:43:19;;;;;;;5.23;3.47;;;6.30;99.90;;;;;;5038143;28;20487;-59
2022/12/28 05:45:46;;;;;;;4.50;3.40;;;6.30;99.90;;;;;;5034500;28;20852;-60
2022/12/28 05:48:13;;;;;;;6.10;3.60;;;6.30;99.90;;;;;;5020189;28;20463;-61
2022/12/28 05:50:42;;;;;;;7.27;3.90;;;6.30;99.90;;;;;;5019699;28;20752;-60
2022/12/28 05:53:09;;;;;;;7.30;3.90;;;6.30;99.90;;;;;;5019887;28;20562;-59
2022/12/28 05:55:36;;;;;;;4.80;3.80;;;6.30;99.90;;;;;;5019748;28;20470;-59
2022/12/28 05:58:04;;;;;;;6.97;4.57;;;6.30;99.90;;;;;;5019215;28;20471;-56
2022/12/28 06:00:31;;;;;;;4.50;3.30;;;6.30;99.90;;;;;;5019403;28;20472;-61
2022/12/28 06:02:58;;;;;;;4.20;3.80;;;6.30;99.90;;;;;;5019461;28;20498;-60
2022/12/28 06:05:26;;;;;;;5.90;4.30;;;6.30;99.90;;;;;;5019197;28;20466;-60
2022/12/28 06:07:55;;;;;;;5.40;3.20;;;6.30;99.90;;;;;;5019688;28;20467;-62
2022/12/28 06:10:22;;;;;;;4.63;3.30;;;6.30;99.90;;;;;;5019437;28;20541;-62
2022/12/28 06:12:49;;;;;;;6.57;3.57;;;6.40;99.90;;;;;;5019367;28;20467;-62
2022/12/28 06:15:16;;;;;;;6.00;3.93;;;6.30;99.90;;;;;;5019647;28;20467;-61
2022/12/28 06:17:43;;;;;;;4.80;3.87;;;6.40;99.90;;;;;;5019570;28;20507;-59
2022/12/28 06:20:11;;;;;;;4.27;3.80;;;6.40;99.90;;;;;;5018581;28;20460;-61
2022/12/28 06:22:38;;;;;;;5.57;3.13;;;6.40;99.90;;;;;;5018916;28;20496;-61
2022/12/28 06:25:08;;;;;;;5.33;3.90;;;6.40;99.90;;;;;;5019599;28;20464;-61
2022/12/28 06:27:35;;;;;;;3.40;3.00;;;6.40;99.90;;;;;;5019261;28;20468;-61
2022/12/28 06:30:02;;;;;;;4.70;3.27;;;6.40;99.90;;;;;;5018580;28;20565;-61
2022/12/28 06:32:29;;;;;;;6.37;3.23;;;6.50;99.90;;;;;;5018871;28;20464;-61
2022/12/28 06:34:56;;;;;;;5.03;3.47;;;6.50;99.90;;;;;;5019520;28;20471;-61
2022/12/28 06:37:23;;;;;;;6.17;3.33;;;6.60;99.90;;;;;;5018701;28;20474;-62
2022/12/28 06:39:51;;;;;;;6.33;3.40;;;6.60;99.90;;;;;;5019086;28;20464;-63
2022/12/28 06:42:19;;;;;;;5.63;3.00;;;6.60;99.90;;;;;;5017528;28;20466;-63
2022/12/28 06:44:46;;;;;;;7.13;3.33;;;6.60;99.90;;;;;;5038100;28;20467;-61
2022/12/28 06:47:13;;;;;;;5.33;3.00;;;6.60;99.90;;;;;;5038261;28;20912;-62
2022/12/28 06:49:40;;;;;;;5.03;3.20;;;6.60;99.90;;;;;;5037964;28;20461;-63
2022/12/28 06:52:08;;;;;;;6.90;3.07;;;6.60;99.90;;;;;;5034936;28;20843;-63
2022/12/28 06:54:35;;;;;;;4.43;3.30;;;6.60;99.90;;;;;;5037981;28;20747;-63
2022/12/28 06:57:02;;;;;;;4.00;2.87;;;6.60;99.90;;;;;;5016853;28;20557;-62
2022/12/28 06:59:31;;;;;;;4.07;2.97;;;6.60;99.90;;;;;;5034502;28;20775;-63
2022/12/28 07:01:58;;;;;;;6.47;3.10;;;6.60;99.90;;;;;;5047690;28;20432;-62
2022/12/28 07:04:25;;;;;;;3.90;2.57;;;6.70;99.90;;;;;;5018756;28;20763;-63
2022/12/28 07:06:52;;;;;;;5.50;3.37;;;6.70;99.90;;;;;;5020109;28;20532;-63
2022/12/28 07:09:19;;;;;;;4.60;2.90;;;6.70;99.90;;;;;;5034387;28;20472;-63
2022/12/28 07:11:50;;;;;;;4.63;2.57;;;6.70;99.90;;;;;;5024071;28;20554;-63
2022/12/28 07:14:18;;;;;;;4.73;2.70;;;6.70;99.90;;;;;;5037562;28;20459;-61
2022/12/28 07:16:47;;;;;;;4.40;3.00;;;6.70;99.90;;;;;;5038336;28;20738;-63
2022/12/28 07:19:14;;;;;;;3.70;2.90;;;6.70;99.90;;;;;;5037525;28;20467;-62
2022/12/28 07:21:42;;;;;;;7.53;3.10;;;6.80;99.90;;;;;;5037796;28;20464;-63
2022/12/28 07:24:09;;;;;;;4.47;2.73;;;6.80;99.90;;;;;;5037141;28;20538;-63
2022/12/28 07:26:38;;;;;;;4.77;2.93;;;6.80;99.90;;;;;;5037351;28;20876;-63
2022/12/28 07:29:07;;;;;;;4.30;2.77;;;6.80;99.90;;;;;;5037290;28;20462;-63
2022/12/28 07:31:36;;;;;;;4.53;2.83;;;6.80;99.90;;;;;;5036323;28;21023;-63
2022/12/28 07:34:05;;;;;;;4.07;3.33;;;6.90;99.90;;;;;;5037421;28;20466;-63
2022/12/28 07:36:33;;;;;;;5.53;3.40;;;6.80;99.90;;;;;;5037181;28;20550;-63
2022/12/28 07:39:00;;;;;;;5.03;2.90;;;6.80;99.90;;;;;;5032986;28;20494;-62
2022/12/28 07:41:30;;;;;;;3.97;3.57;;;6.80;99.90;;;;;;5024887;28;20553;-63
2022/12/28 07:43:57;;;;;;;8.00;4.20;;;6.80;99.90;;;;;;5037096;28;20569;-63
2022/12/28 07:46:25;;;;;;;7.23;3.20;;;6.80;99.90;;;;;;5036539;28;20475;-63
2022/12/28 07:48:53;;;;;;;4.63;3.17;;;6.80;99.90;;;;;;5037416;28;20463;-63
2022/12/28 07:51:23;;;;;;;4.80;3.40;;;6.70;99.90;;;;;;5037504;28;20473;-63
2022/12/28 07:53:52;;;;;;;4.50;3.30;;;6.80;99.90;;;;;;5023291;28;20471;-63
2022/12/28 07:56:20;;;;;;;5.63;3.20;;;6.80;99.90;;;;;;5017581;28;20761;-63
2022/12/28 07:58:49;;;;;;;3.87;3.27;;;6.80;99.90;;;;;;5020707;28;20470;-63
2022/12/28 08:01:19;;;;;;;6.83;3.80;;;6.80;99.90;;;;;;5034474;28;20466;-63
2022/12/28 08:03:46;;;;;;;5.47;3.37;;;6.80;99.90;;;;;;5036487;28;20760;-62
2022/12/28 08:06:17;;;;;;;7.03;3.43;;;6.80;99.90;;;;;;5035286;28;20509;-62
2022/12/28 08:08:47;;;;;;;5.43;3.50;;;6.80;99.90;;;;;;5035553;28;20464;-62
2022/12/28 08:11:16;;;;;;;4.20;3.80;;;6.80;99.90;;;;;;5035518;28;20491;-62
2022/12/28 08:13:45;;;;;;;4.23;3.80;;;6.80;99.90;;;;;;5027878;28;20466;-63
2022/12/28 08:16:14;;;;;;;7.33;4.47;;;6.80;99.90;;;;;;5026875;28;20459;-63
2022/12/28 08:18:42;;;;;;;6.37;4.00;;;6.80;99.90;;;;;;5035615;28;20470;-63
2022/12/28 08:21:12;;;;;;;5.07;3.80;;;6.90;99.90;;;;;;5035368;28;20518;-64
2022/12/28 08:23:39;;;;;;;5.80;4.33;;;6.90;99.90;;;;;;5043402;28;20938;-63
2022/12/28 08:26:10;;;;;;;5.20;4.00;;;6.90;99.90;;;;;;5022282;28;20727;-63
2022/12/28 08:28:38;;;;;;;5.40;3.93;;;6.90;99.90;;;;;;5015061;28;20464;-63
2022/12/28 08:31:07;;;;;;;4.67;3.50;;;6.90;99.90;;;;;;5014801;28;20470;-63
2022/12/28 08:33:35;;;;;;;3.73;3.33;;;6.90;99.90;;;;;;5016141;28;20457;-63
2022/12/28 08:36:02;;;;;;;5.47;4.30;;;6.90;99.90;;;;;;5020781;28;20558;-63
2022/12/28 08:38:29;;;;;;;5.80;3.73;;;6.90;99.90;;;;;;5032542;28;20455;-63
2022/12/28 08:40:57;;;;;;;6.50;4.07;;;7.00;99.90;;;;;;5027585;28;20438;-63
2022/12/28 08:43:26;;;;;;;5.97;4.10;;;6.90;99.90;;;;;;5029336;28;20590;-63
2022/12/28 08:46:00;;;;;;;5.77;4.43;;;6.90;99.90;;;;;;5039605;28;20541;-64
2022/12/28 08:48:28;;;;;;;5.33;3.80;;;7.00;99.90;;;;;;5035638;28;20802;-66
2022/12/28 08:51:00;;;;;;;3.90;3.30;;;7.00;99.90;;;;;;5040515;28;20488;-65
2022/12/28 08:53:27;;;;;;;6.93;4.30;;;7.10;99.90;;;;;;5038160;28;20465;-64
2022/12/28 08:55:54;;;;;;;5.70;3.90;;;7.10;99.90;;;;;;5040993;28;20475;-63
2022/12/28 08:58:21;;;;;;;5.33;4.83;;;7.10;99.90;;;;;;5040370;28;20492;-64
2022/12/28 09:00:50;;;;;;;4.47;3.10;;;7.10;99.90;;;;;;5040286;28;20762;-65
2022/12/28 09:03:17;;;;;;;3.90;2.97;;;7.10;99.90;;;;;;5040159;28;20487;-64
2022/12/28 09:05:44;;;;;;;5.00;3.70;;;7.10;99.90;;;;;;5040023;28;20493;-65
2022/12/28 09:08:11;;;;;;;5.13;3.30;;;7.20;99.90;;;;;;5040528;28;20458;-65
2022/12/28 09:10:38;;;;;;;4.43;3.13;;;7.20;99.90;;;;;;5040292;28;20473;-66
2022/12/28 09:13:06;;;;;;;3.47;2.90;;;7.20;99.90;;;;;;5040366;28;20538;-66
2022/12/28 09:15:33;;;;;;;5.67;3.70;;;7.20;99.90;;;;;;5040209;28;20559;-64
2022/12/28 09:18:02;;;;;;;3.50;3.20;;;7.20;99.90;;;;;;5040107;28;20473;-65
2022/12/28 09:20:29;;;;;;;4.87;3.70;;;7.20;99.90;;;;;;5039666;28;20463;-64
2022/12/28 09:22:56;;;;;;;3.70;3.30;;;7.20;99.90;;;;;;5039945;28;20467;-65
2022/12/28 09:25:23;;;;;;;3.83;3.17;;;7.30;99.90;;;;;;5040012;28;20769;-65
2022/12/28 09:27:50;;;;;;;4.80;3.40;;;7.30;99.90;;;;;;5039956;28;20473;-65
2022/12/28 09:30:17;;;;;;;6.43;3.57;;;7.30;99.90;;;;;;5038738;28;20569;-66
2022/12/28 09:33:57;;;;;;;4.83;3.33;;;7.30;99.90;;;;;;5040087;28;20875;-65
2022/12/28 09:35:33;;;;;;;5.63;3.10;;;7.40;99.90;;;;;;5039506;28;20504;-65
2022/12/28 09:38:00;;;;;;;4.83;3.20;;;7.40;99.90;;;;;;5039835;28;20458;-65
2022/12/28 09:40:28;;;;;;;5.50;3.37;;;7.40;99.90;;;;;;5039768;28;20469;-65
2022/12/28 09:42:55;;;;;;;3.50;2.67;;;7.40;99.90;;;;;;5039750;28;20463;-64
2022/12/28 09:45:26;;;;;;;3.67;3.10;;;7.50;99.90;;;;;;5039148;28;20441;-65
2022/12/28 09:47:58;;;;;;;4.60;3.10;;;7.40;99.90;;;;;;5038188;28;20450;-65
2022/12/28 09:50:31;;;;;;;4.63;3.20;;;7.50;99.90;;;;;;5028885;28;20977;-65
2022/12/28 09:53:16;;;;;;;5.40;3.57;;;7.50;99.90;;;;;;5025131;28;20482;-65
2022/12/28 09:55:53;;;;;;;3.23;2.83;;;7.50;99.90;;;;;;5028293;28;20745;-64
2022/12/28 09:58:21;;;;;;;4.83;3.07;;;7.60;99.90;;;;;;5038042;28;20553;-65
2022/12/28 10:00:50;;;;;;;3.73;3.23;;;7.60;99.90;;;;;;5038018;28;20463;-65
2022/12/28 10:03:20;;;;;;;4.97;2.93;;;7.60;99.90;;;;;;5036011;28;20971;-65
2022/12/28 10:05:48;;;;;;;4.50;3.07;;;7.60;99.90;;;;;;5029638;28;20497;-64
2022/12/28 10:08:19;;;;;;;4.10;3.30;;;7.60;99.90;;;;;;5037467;28;20438;-64
2022/12/28 10:10:47;;;;;;;4.43;3.40;;;7.60;99.90;;;;;;5039052;28;20466;-64
2022/12/28 10:13:18;;;;;;;5.00;3.30;;;7.70;99.90;;;;;;5035768;28;20531;-65
2022/12/28 10:15:45;;;;;;;4.10;3.17;;;7.70;99.90;;;;;;5028570;28;20551;-65
2022/12/28 10:18:14;;;;;;;4.30;2.90;;;7.70;99.90;;;;;;5030682;28;20497;-63
2022/12/28 10:20:44;;;;;;;5.63;3.83;;;7.70;99.90;;;;;;5029224;28;20513;-65
2022/12/28 10:23:17;;;;;;;4.60;2.90;;;7.70;99.90;;;;;;5030779;28;20438;-65
2022/12/28 10:25:46;;;;;;;3.70;3.00;;;7.70;99.90;;;;;;5037144;28;20463;-64
2022/12/28 10:28:15;;;;;;;3.97;2.90;;;7.70;99.90;;;;;;5037319;28;20459;-63
2022/12/28 10:31:02;;;;;;;4.63;3.03;;;7.70;99.90;;;;;;5037651;28;20470;-63
2022/12/28 10:33:29;;;;;;;3.87;2.80;;;7.70;99.90;;;;;;5037095;28;20466;-63
2022/12/28 10:35:57;;;;;;;5.50;2.60;;;7.70;99.90;;;;;;5036436;28;20471;-63
2022/12/28 10:38:29;;;;;;;4.00;2.33;;;7.70;99.90;;;;;;5027052;28;20468;-64
2022/12/28 10:41:00;;;;;;;6.23;3.30;;;7.80;99.90;;;;;;5027906;28;20753;-64
2022/12/28 10:43:30;;;;;;;3.83;2.73;;;7.70;99.90;;;;;;5027661;28;20467;-64
2022/12/28 10:45:58;;;;;;;3.53;2.37;;;7.70;99.90;;;;;;5026172;28;20448;-64
2022/12/28 10:48:29;;;;;;;3.20;2.70;;;7.70;99.90;;;;;;5019439;28;20897;-64
2022/12/28 10:51:00;;;;;;;3.27;2.87;;;7.80;99.90;;;;;;5037191;28;20463;-64
2022/12/28 10:53:30;;;;;;;2.60;2.17;;;7.90;99.90;;;;;;5036779;28;20467;-64
2022/12/28 10:56:20;;;;;;;4.27;2.67;;;7.90;99.90;;;;;;5036754;28;20467;-64
2022/12/28 10:58:49;;;;;;;3.50;2.93;;;8.00;99.90;;;;;;5037187;28;20438;-64
2022/12/28 11:01:19;;;;;;;4.10;2.30;;;8.00;99.90;;;;;;5037360;28;20462;-65
2022/12/28 11:03:59;;;;;;;2.80;2.20;;;8.00;99.90;;;;;;5021895;28;20761;-64
2022/12/28 11:06:28;;;;;;;3.60;2.60;;;8.00;99.90;;;;;;5016397;28;20504;-64
2022/12/28 11:09:20;;;;;;;2.83;2.53;;;8.00;99.90;;;;;;5017037;28;20438;-64
2022/12/28 11:11:49;;;;;;;3.43;2.70;;;8.00;99.90;;;;;;5018683;28;20467;-65
2022/12/28 11:14:29;;;;;;;3.97;2.70;;;8.00;99.90;;;;;;5037232;28;20896;-64
2022/12/28 11:16:57;;;;;;;2.87;2.30;;;8.00;99.90;;;;;;5036953;28;20479;-64
2022/12/28 11:19:25;;;;;;;3.57;2.33;;;8.00;99.90;;;;;;5036363;28;20443;-65
2022/12/28 11:21:53;;;;;;;3.47;2.70;;;8.00;99.90;;;;;;5036519;28;20455;-64
2022/12/28 11:24:26;;;;;;;2.83;2.17;;;8.00;99.90;;;;;;5036975;28;20494;-64
2022/12/28 11:26:54;;;;;;;3.90;2.57;;;8.00;99.90;;;;;;5037080;28;20467;-63
2022/12/28 11:29:21;;;;;;;2.83;2.43;;;8.10;99.90;;;;;;5016100;28;20561;-64
2022/12/28 11:31:54;;;;;;;3.60;2.40;;;8.10;99.90;;;;;;5024999;28;20455;-64
2022/12/28 11:34:26;;;;;;;4.97;2.30;;;8.10;99.90;;;;;;5034300;28;20766;-64
2022/12/28 11:36:53;;;;;;;6.67;2.47;;;8.10;99.90;;;;;;5035009;28;20463;-64
2022/12/28 11:39:33;;;;;;;7.10;2.50;;;8.10;99.90;;;;;;5026120;28;20881;-64
2022/12/28 11:42:01;;;;;;;4.50;2.87;;;8.20;99.90;;;;;;5027394;28;20938;-64
2022/12/28 11:44:49;;;;;;;2.87;2.43;;;8.30;99.90;;;;;;5036402;28;20772;-63
2022/12/28 11:47:32;;;;;;;5.00;2.80;;;8.20;99.90;;;;;;5036167;28;20467;-64
2022/12/28 11:50:38;;;;;;;2.90;2.27;;;8.20;99.90;;;;;;5036111;28;20490;-64
2022/12/28 11:53:19;;;;;;;4.40;2.90;;;8.20;99.90;;;;;;5035797;28;20509;-64
2022/12/28 11:56:05;;;;;;;4.20;2.77;;;8.10;99.90;;;;;;5020477;28;20864;-65
2022/12/28 11:58:45;;;;;;;3.63;3.30;;;8.20;99.90;;;;;;5020551;28;20463;-65
2022/12/28 12:01:45;;;;;;;3.10;2.80;;;8.30;99.90;;;;;;5034334;28;20442;-65
2022/12/28 12:04:40;;;;;;;4.40;2.67;;;8.30;99.90;;;;;;5021504;28;20545;-66
2022/12/28 12:07:47;;;;;;;3.57;3.00;;;8.40;99.90;;;;;;5017331;28;20519;-65
2022/12/28 12:10:37;;;;;;;3.03;2.40;;;8.40;99.90;;;;;;5017361;28;20456;-64
2022/12/28 12:13:38;;;;;;;5.50;3.37;;;8.40;99.90;;;;;;5011961;28;20464;-64
2022/12/28 12:16:17;;;;;;;3.97;2.80;;;8.40;99.90;;;;;;5017528;28;20452;-64
2022/12/28 12:18:48;;;;;;;3.90;2.50;;;8.40;99.90;;;;;;5016845;28;20873;-65
2022/12/28 12:21:30;;;;;;;2.90;2.50;;;8.40;99.90;;;;;;5017046;28;20468;-65
2022/12/28 12:24:03;;;;;;;4.77;2.70;;;8.40;99.90;;;;;;5015429;28;20468;-64
2022/12/28 12:26:36;;;;;;;4.70;2.77;;;8.50;99.90;;;;;;5017635;28;20918;-64
2022/12/28 12:29:13;;;;;;;5.43;2.97;;;8.50;99.90;;;;;;5007821;28;20461;-64
2022/12/28 12:31:44;;;;;;;3.77;3.17;;;8.50;99.90;;;;;;5006678;28;20446;-65
2022/12/28 12:34:17;;;;;;;5.00;2.97;;;8.50;99.90;;;;;;4996739;28;20464;-64
2022/12/28 12:37:06;;;;;;;4.40;2.80;;;8.50;99.90;;;;;;5009635;28;20460;-63
2022/12/28 12:40:10;;;;;;;5.10;3.00;;;8.50;99.90;;;;;;5016548;28;20502;-64
2022/12/28 12:42:45;;;;;;;3.90;3.07;;;8.50;99.90;;;;;;5017396;28;20462;-64
2022/12/28 12:45:23;;;;;;;3.90;2.97;;;8.40;99.90;;;;;;5010488;28;21234;-64
2022/12/28 12:48:13;;;;;;;4.70;3.00;;;8.40;99.90;;;;;;5001912;28;20464;-64
2022/12/28 12:51:19;;;;;;;4.70;2.87;;;8.40;99.90;;;;;;5007117;28;20895;-64
2022/12/28 12:53:58;;;;;;;3.67;2.60;;;8.30;99.90;;;;;;4997630;28;20449;-65
2022/12/28 12:56:40;;;;;;;8.63;2.93;;;8.30;99.90;;;;;;5005639;28;20456;-64
2022/12/28 12:59:29;;;;;;;4.57;2.97;;;8.30;99.90;;;;;;5002364;28;20949;-64
2022/12/28 13:02:13;;;;;;;3.53;2.53;;;8.40;99.90;;;;;;5008527;28;20510;-64
2022/12/28 13:04:43;;;;;;;4.83;3.00;;;8.30;99.90;;;;;;5015349;28;20933;-64
2022/12/28 13:07:19;;;;;;;5.87;3.43;;;8.30;99.90;;;;;;5022231;28;20438;-64
2022/12/28 13:09:47;;;;;;;6.60;3.00;;;8.30;99.90;;;;;;5031079;28;20514;-63
2022/12/28 13:12:17;;;;;;;3.80;3.00;;;8.30;99.90;;;;;;5033449;28;20536;-64
2022/12/28 13:14:46;;;;;;;7.00;3.40;;;8.30;99.90;;;;;;5030354;28;20439;-63
2022/12/28 13:17:18;;;;;;;5.00;3.30;;;8.30;99.90;;;;;;5022001;28;20460;-64
2022/12/28 13:19:45;;;;;;;4.10;2.83;;;8.30;99.90;;;;;;5024672;28;20895;-64
2022/12/28 13:22:27;;;;;;;5.20;3.57;;;8.20;99.90;;;;;;5020098;28;20655;-62
2022/12/28 13:24:54;;;;;;;6.53;3.40;;;8.30;99.90;;;;;;5025742;28;20554;-64
2022/12/28 13:27:22;;;;;;;5.37;3.80;;;8.30;99.90;;;;;;5026898;28;20546;-64
2022/12/28 13:29:53;;;;;;;6.17;3.60;;;8.20;99.90;;;;;;5032216;28;20526;-65
2022/12/28 13:32:29;;;;;;;8.63;5.10;;;8.20;99.90;;;;;;5033941;28;20463;-65
2022/12/28 13:34:56;;;;;;;6.83;3.37;;;8.20;99.90;;;;;;5026790;28;20454;-65
2022/12/28 13:37:23;;;;;;;4.17;3.43;;;8.30;99.90;;;;;;5027768;28;20456;-64
2022/12/28 13:39:51;;;;;;;4.93;3.40;;;8.20;99.90;;;;;;5027879;28;20465;-66
2022/12/28 13:42:21;;;;;;;6.13;3.07;;;8.20;99.90;;;;;;5028991;28;20438;-65
2022/12/28 13:44:51;;;;;;;7.30;3.07;;;8.20;99.90;;;;;;5030922;28;20462;-66